Terminal Aerodrome Forecast
Issued by NWS Billings, MT

Home | Current Version | Previous Version | Text Only | Print | Product List | Glossary Off
Versions: 1 2 3 4 5 6 7 8 9 10 11 12

000
FTUS45 KBYZ 240520
TAFMLS
TAF
KMLS 240520Z 2406/2506 29005KT P6SM SCT090
     FM241800 33010G19KT P6SM SCT080
     FM242200 34012KT P6SM VCSH BKN100
     FM250300 04008KT P6SM BKN100=

USA.gov is the U.S. government's official web portal to all federal, state and local government web resources and services.